Kaltag, AK (99748)

3:14 AM AKST on January 31, 2015 (GMT -0900)
RAWS KAIYUH AK US | Change Station
CLOSE
Current Station
Personal Weather Station
Location: Kaltag, AK
Elevation: 109 ft
Nearby Weather Stations

Elev 109 ft 64.43 °N, 158.11 °W | Updated 3 hours ago

Clear
Clear
-20 °F
Feels Like -20 °F
N
0
Wind Variable Wind from North
Gusts 2.0 mph

Today
High -- | Low -- °F
--% Chance of Precip.
Yesterday
High -- | Low -- °F
Precip. -- in
10:19 AM 5:18 PM
Waxing Gibbous, 89% visible
Pressure 30.82 in
Visibility 10.0 miles
Clouds Clear
Windchill -20 °F
Dew Point -28 °F
Humidity 64%
Rainfall 0.00 in
Snow Depth Not available.
UV 0 out of 12
Pollen Not available.
Air Quality Not available.
Flu Activity Not available.
METAR PAKV 311053Z AUTO 00000KT 10SM CLR M27/M31 A3079 RMK AO1 SLP435 T12721306 FZRANO TSNO

More Conditions Fewer Conditions

Pressure 30.82 in
Visibility 10.0 miles
Clouds Clear
Windchill -20 °F
Dew Point -28 °F
Humidity 64%
Rainfall 0.00 in
Snow Depth Not available.
UV 0 out of 12
Pollen Not available.
Air Quality Not available.
Flu Activity Not available.
METAR PAKV 311053Z AUTO 00000KT 10SM CLR M27/M31 A3079 RMK AO1 SLP435 T12721306 FZRANO TSNO

More Conditions Fewer Conditions

10-Day Weather Forecast

Almanac

Astronomy

Jan. 31, 2015 Rise Set
Actual Time
Civil Twilight
Nautical Twilight
Astronomical Twilight
Moon
Length of Visible Light
Length of Day
Tomorrow will be .
, % of the Moon is Illuminated

Today's Extremes

State Highs State Lows

Community

WunderPhotos

Upload Photos

1,792,036 photos uploaded!

WunderBlogs® & News

Nearby

Air Quality

  Air Quality AQ Index Pollutant
Not available.

Snow Depth

Station Depth Elevation

Earthquake Activity

City Distance Mag. Time & Date
Minimum magnitude displayed is 2.5.

Coastal Water Temperatures

Place Temperature

Nearby Weather Stations